sensor_id;sensor_type;location;lat;lon;timestamp;pressure;altitude;pressure_sealevel;temperature;humidity
48644;BME280;34928;37.302;-121.984;2023-06-19T00:06:59;100504.0;;;32.75;24.05
48644;BME280;34928;37.302;-121.984;2023-06-19T00:17:03;100499.0;;;32.54;24.02
48644;BME280;34928;37.302;-121.984;2023-06-19T00:27:08;100502.0;;;32.42;23.91
48644;BME280;34928;37.302;-121.984;2023-06-19T00:37:18;100504.0;;;32.69;23.85
48644;BME280;34928;37.302;-121.984;2023-06-19T00:47:22;100490.0;;;32.51;23.76
48644;BME280;34928;37.302;-121.984;2023-06-19T00:57:29;100484.0;;;32.61;23.67
48644;BME280;34928;37.302;-121.984;2023-06-19T01:07:38;100488.0;;;32.76;23.76
48644;BME280;34928;37.302;-121.984;2023-06-19T01:17:48;100500.0;;;32.82;23.62
48644;BME280;34928;37.302;-121.984;2023-06-19T01:27:53;100502.0;;;32.63;23.64
48644;BME280;34928;37.302;-121.984;2023-06-19T01:37:58;100501.0;;;32.64;23.66
48644;BME280;34928;37.302;-121.984;2023-06-19T01:48:03;100508.0;;;32.87;23.58
48644;BME280;34928;37.302;-121.984;2023-06-19T01:58:08;100516.0;;;32.64;23.47
48644;BME280;34928;37.302;-121.984;2023-06-19T02:08:13;100522.0;;;32.89;23.50
48644;BME280;34928;37.302;-121.984;2023-06-19T02:18:18;100530.0;;;32.84;23.55
48644;BME280;34928;37.302;-121.984;2023-06-19T02:28:23;100540.0;;;32.68;23.54
48644;BME280;34928;37.302;-121.984;2023-06-19T02:38:27;100550.0;;;32.68;23.54
48644;BME280;34928;37.302;-121.984;2023-06-19T02:48:33;100560.0;;;32.91;23.48
48644;BME280;34928;37.302;-121.984;2023-06-19T02:58:37;100571.0;;;32.67;23.47
48644;BME280;34928;37.302;-121.984;2023-06-19T03:08:42;100579.0;;;32.88;23.50
48644;BME280;34928;37.302;-121.984;2023-06-19T03:18:48;100588.0;;;32.60;23.34
48644;BME280;34928;37.302;-121.984;2023-06-19T03:28:52;100597.0;;;32.88;23.15
48644;BME280;34928;37.302;-121.984;2023-06-19T03:38:59;100615.0;;;32.28;23.05
48644;BME280;34928;37.302;-121.984;2023-06-19T03:49:03;100622.0;;;32.40;22.99
48644;BME280;34928;37.302;-121.984;2023-06-19T03:59:09;100623.0;;;32.53;22.91
48644;BME280;34928;37.302;-121.984;2023-06-19T04:09:13;100625.0;;;32.44;22.85
48644;BME280;34928;37.302;-121.984;2023-06-19T04:19:18;100643.0;;;32.34;22.75
48644;BME280;34928;37.302;-121.984;2023-06-19T04:29:23;100657.0;;;32.26;22.65
48644;BME280;34928;37.302;-121.984;2023-06-19T04:39:33;100663.0;;;31.92;22.57
48644;BME280;34928;37.302;-121.984;2023-06-19T04:49:39;100674.0;;;32.05;22.50
48644;BME280;34928;37.302;-121.984;2023-06-19T04:59:44;100675.0;;;32.38;22.63
48644;BME280;34928;37.302;-121.984;2023-06-19T05:09:48;100680.0;;;31.97;22.70
48644;BME280;34928;37.302;-121.984;2023-06-19T05:19:53;100682.0;;;31.86;22.79
48644;BME280;34928;37.302;-121.984;2023-06-19T05:29:58;100687.0;;;31.73;22.84
48644;BME280;34928;37.302;-121.984;2023-06-19T05:40:04;100690.0;;;31.68;22.89
48644;BME280;34928;37.302;-121.984;2023-06-19T05:50:09;100692.0;;;31.53;22.91
48644;BME280;34928;37.302;-121.984;2023-06-19T06:00:15;100697.0;;;31.69;22.97
48644;BME280;34928;37.302;-121.984;2023-06-19T06:10:24;100696.0;;;31.55;22.97
48644;BME280;34928;37.302;-121.984;2023-06-19T06:20:28;100694.0;;;31.44;23.01
48644;BME280;34928;37.302;-121.984;2023-06-19T06:30:33;100698.0;;;31.37;22.99
48644;BME280;34928;37.302;-121.984;2023-06-19T06:40:38;100695.0;;;31.48;23.04
48644;BME280;34928;37.302;-121.984;2023-06-19T06:50:42;100687.0;;;31.37;23.07
48644;BME280;34928;37.302;-121.984;2023-06-19T07:00:48;100695.0;;;30.98;23.11
48644;BME280;34928;37.302;-121.984;2023-06-19T07:10:54;100689.0;;;31.12;23.08
48644;BME280;34928;37.302;-121.984;2023-06-19T07:20:57;100690.0;;;31.07;23.08
48644;BME280;34928;37.302;-121.984;2023-06-19T07:31:03;100694.0;;;31.00;23.07
48644;BME280;34928;37.302;-121.984;2023-06-19T07:41:07;100703.0;;;30.85;23.15
48644;BME280;34928;37.302;-121.984;2023-06-19T07:51:12;100709.0;;;30.73;23.18
48644;BME280;34928;37.302;-121.984;2023-06-19T08:01:18;100710.0;;;30.62;23.20
48644;BME280;34928;37.302;-121.984;2023-06-19T08:11:22;100710.0;;;30.98;23.21
48644;BME280;34928;37.302;-121.984;2023-06-19T08:21:27;100709.0;;;30.66;23.19
48644;BME280;34928;37.302;-121.984;2023-06-19T08:31:32;100711.0;;;30.11;23.30
48644;BME280;34928;37.302;-121.984;2023-06-19T08:41:38;100722.0;;;30.07;23.23
48644;BME280;34928;37.302;-121.984;2023-06-19T08:51:42;100731.0;;;30.05;23.36
48644;BME280;34928;37.302;-121.984;2023-06-19T09:01:49;100735.0;;;30.10;23.24
48644;BME280;34928;37.302;-121.984;2023-06-19T09:12:00;100742.0;;;29.95;23.30
48644;BME280;34928;37.302;-121.984;2023-06-19T09:22:08;100744.0;;;29.60;23.29
48644;BME280;34928;37.302;-121.984;2023-06-19T09:32:17;100753.0;;;29.88;23.37
48644;BME280;34928;37.302;-121.984;2023-06-19T09:42:27;100751.0;;;29.88;23.28
48644;BME280;34928;37.302;-121.984;2023-06-19T09:52:33;100753.0;;;29.58;23.25
48644;BME280;34928;37.302;-121.984;2023-06-19T10:02:37;100754.0;;;29.61;23.31
48644;BME280;34928;37.302;-121.984;2023-06-19T10:12:45;100754.0;;;29.53;23.27
48644;BME280;34928;37.302;-121.984;2023-06-19T10:22:58;100762.0;;;29.28;23.40
48644;BME280;34928;37.302;-121.984;2023-06-19T10:33:03;100766.0;;;29.17;23.42
48644;BME280;34928;37.302;-121.984;2023-06-19T10:43:08;100768.0;;;28.88;23.58
48644;BME280;34928;37.302;-121.984;2023-06-19T10:53:22;100769.0;;;28.95;23.45
48644;BME280;34928;37.302;-121.984;2023-06-19T11:03:28;100767.0;;;28.82;23.46
48644;BME280;34928;37.302;-121.984;2023-06-19T11:13:33;100769.0;;;28.83;23.39
48644;BME280;34928;37.302;-121.984;2023-06-19T11:23:37;100774.0;;;29.17;23.41
48644;BME280;34928;37.302;-121.984;2023-06-19T11:33:42;100775.0;;;28.65;23.55
48644;BME280;34928;37.302;-121.984;2023-06-19T11:43:48;100780.0;;;28.65;23.50
48644;BME280;34928;37.302;-121.984;2023-06-19T11:53:52;100777.0;;;28.71;23.57
48644;BME280;34928;37.302;-121.984;2023-06-19T12:03:57;100780.0;;;28.71;23.49
48644;BME280;34928;37.302;-121.984;2023-06-19T12:14:03;100793.0;;;28.25;23.56
48644;BME280;34928;37.302;-121.984;2023-06-19T12:24:07;100796.0;;;28.53;23.46
48644;BME280;34928;37.302;-121.984;2023-06-19T12:34:13;100804.0;;;28.34;23.55
48644;BME280;34928;37.302;-121.984;2023-06-19T12:44:17;100817.0;;;28.23;23.53
48644;BME280;34928;37.302;-121.984;2023-06-19T12:54:23;100837.0;;;28.09;23.56
48644;BME280;34928;37.302;-121.984;2023-06-19T13:04:28;100857.0;;;28.05;23.53
48644;BME280;34928;37.302;-121.984;2023-06-19T13:14:32;100859.0;;;28.04;23.42
48644;BME280;34928;37.302;-121.984;2023-06-19T13:24:38;100866.0;;;27.99;23.44
48644;BME280;34928;37.302;-121.984;2023-06-19T13:34:43;100870.0;;;27.85;23.47
48644;BME280;34928;37.302;-121.984;2023-06-19T13:44:48;100878.0;;;27.82;23.43
48644;BME280;34928;37.302;-121.984;2023-06-19T13:54:53;100888.0;;;27.78;23.41
48644;BME280;34928;37.302;-121.984;2023-06-19T14:04:57;100899.0;;;27.91;23.42
48644;BME280;34928;37.302;-121.984;2023-06-19T14:15:05;100914.0;;;27.58;23.48
48644;BME280;34928;37.302;-121.984;2023-06-19T14:25:13;100919.0;;;27.53;23.47
48644;BME280;34928;37.302;-121.984;2023-06-19T14:35:18;100937.0;;;27.50;23.47
48644;BME280;34928;37.302;-121.984;2023-06-19T14:45:23;100943.0;;;27.57;23.34
48644;BME280;34928;37.302;-121.984;2023-06-19T14:55:28;100949.0;;;28.21;23.14
48644;BME280;34928;37.302;-121.984;2023-06-19T15:05:32;100967.0;;;27.96;23.11
48644;BME280;34928;37.302;-121.984;2023-06-19T15:15:38;100974.0;;;28.04;22.99
48644;BME280;34928;37.302;-121.984;2023-06-19T15:25:43;100976.0;;;27.82;22.95
48644;BME280;34928;37.302;-121.984;2023-06-19T15:35:47;100973.0;;;28.06;22.82
48644;BME280;34928;37.302;-121.984;2023-06-19T15:45:54;100995.0;;;27.93;22.76
48644;BME280;34928;37.302;-121.984;2023-06-19T15:55:59;100997.0;;;28.39;22.75
48644;BME280;34928;37.302;-121.984;2023-06-19T16:06:02;100998.0;;;28.00;22.61
48644;BME280;34928;37.302;-121.984;2023-06-19T16:16:08;100999.0;;;27.99;22.64
48644;BME280;34928;37.302;-121.984;2023-06-19T16:26:13;100993.0;;;28.07;22.73
48644;BME280;34928;37.302;-121.984;2023-06-19T16:36:23;100993.0;;;28.13;22.66
48644;BME280;34928;37.302;-121.984;2023-06-19T16:46:28;100994.0;;;28.13;22.63
48644;BME280;34928;37.302;-121.984;2023-06-19T16:56:32;101010.0;;;28.40;22.56
48644;BME280;34928;37.302;-121.984;2023-06-19T17:06:37;101000.0;;;28.25;22.55
48644;BME280;34928;37.302;-121.984;2023-06-19T17:16:42;101009.0;;;28.32;22.45
48644;BME280;34928;37.302;-121.984;2023-06-19T17:26:52;101019.0;;;28.41;22.40
48644;BME280;34928;37.302;-121.984;2023-06-19T17:37:03;101028.0;;;28.47;22.32
48644;BME280;34928;37.302;-121.984;2023-06-19T17:47:08;101031.0;;;28.54;22.26
48644;BME280;34928;37.302;-121.984;2023-06-19T17:57:13;101025.0;;;28.63;22.16
48644;BME280;34928;37.302;-121.984;2023-06-19T18:07:18;101033.0;;;28.78;21.88
48644;BME280;34928;37.302;-121.984;2023-06-19T18:17:23;101046.0;;;28.76;22.03
48644;BME280;34928;37.302;-121.984;2023-06-19T18:27:27;101051.0;;;28.84;22.04
48644;BME280;34928;37.302;-121.984;2023-06-19T18:37:33;101059.0;;;28.98;21.99
48644;BME280;34928;37.302;-121.984;2023-06-19T18:47:38;101045.0;;;29.06;21.98
48644;BME280;34928;37.302;-121.984;2023-06-19T18:57:43;101049.0;;;29.14;21.96
48644;BME280;34928;37.302;-121.984;2023-06-19T19:07:48;101044.0;;;28.98;21.91
48644;BME280;34928;37.302;-121.984;2023-06-19T19:17:52;101049.0;;;28.79;21.87
48644;BME280;34928;37.302;-121.984;2023-06-19T19:27:57;101041.0;;;29.37;21.73
48644;BME280;34928;37.302;-121.984;2023-06-19T19:38:03;101041.0;;;29.13;21.70
48644;BME280;34928;37.302;-121.984;2023-06-19T19:48:08;101045.0;;;29.26;21.58
48644;BME280;34928;37.302;-121.984;2023-06-19T19:58:14;101023.0;;;29.27;21.61
48644;BME280;34928;37.302;-121.984;2023-06-19T20:08:18;101026.0;;;29.34;21.52
48644;BME280;34928;37.302;-121.984;2023-06-19T20:18:23;101015.0;;;29.45;21.59
48644;BME280;34928;37.302;-121.984;2023-06-19T20:28:28;101026.0;;;29.28;21.60
48644;BME280;34928;37.302;-121.984;2023-06-19T20:38:33;101019.0;;;29.40;21.60
48644;BME280;34928;37.302;-121.984;2023-06-19T20:48:41;101028.0;;;29.54;21.56
48644;BME280;34928;37.302;-121.984;2023-06-19T20:58:48;101030.0;;;29.63;21.56
48644;BME280;34928;37.302;-121.984;2023-06-19T21:08:52;101032.0;;;29.66;21.55
48644;BME280;34928;37.302;-121.984;2023-06-19T21:18:57;101032.0;;;29.77;21.45
48644;BME280;34928;37.302;-121.984;2023-06-19T21:29:08;101024.0;;;30.08;21.39
48644;BME280;34928;37.302;-121.984;2023-06-19T21:39:13;101036.0;;;29.92;21.42
48644;BME280;34928;37.302;-121.984;2023-06-19T21:49:22;101038.0;;;30.01;21.44
48644;BME280;34928;37.302;-121.984;2023-06-19T21:59:29;101035.0;;;30.02;21.47
48644;BME280;34928;37.302;-121.984;2023-06-19T22:09:32;101031.0;;;29.94;21.42
48644;BME280;34928;37.302;-121.984;2023-06-19T22:19:42;101032.0;;;30.26;21.40
48644;BME280;34928;37.302;-121.984;2023-06-19T22:29:48;101033.0;;;30.11;21.40
48644;BME280;34928;37.302;-121.984;2023-06-19T22:39:53;101030.0;;;29.92;21.40
48644;BME280;34928;37.302;-121.984;2023-06-19T22:49:57;101029.0;;;30.04;21.30
48644;BME280;34928;37.302;-121.984;2023-06-19T23:00:03;101025.0;;;30.52;21.39
48644;BME280;34928;37.302;-121.984;2023-06-19T23:10:08;101025.0;;;30.11;21.34
48644;BME280;34928;37.302;-121.984;2023-06-19T23:20:12;101036.0;;;30.63;21.38
48644;BME280;34928;37.302;-121.984;2023-06-19T23:30:17;101034.0;;;30.59;21.30
48644;BME280;34928;37.302;-121.984;2023-06-19T23:40:24;101042.0;;;30.65;21.32
48644;BME280;34928;37.302;-121.984;2023-06-19T23:50:28;101035.0;;;30.43;21.31
